createdAt,value
2017-07-16T00:00:57.994Z,1022.39
2017-07-16T00:02:06.851Z,1022.4
2017-07-16T00:03:15.710Z,1022.39
2017-07-16T00:04:24.568Z,1022.39
2017-07-16T00:05:33.424Z,1022.38
2017-07-16T00:06:42.530Z,1022.34
2017-07-16T00:07:51.385Z,1022.3
2017-07-16T00:09:00.241Z,1022.3
2017-07-16T00:10:09.447Z,1022.3
2017-07-16T00:11:18.306Z,1022.3
2017-07-16T00:12:27.312Z,1022.25
2017-07-16T00:13:36.167Z,1022.28
2017-07-16T00:14:45.024Z,1022.31
2017-07-16T00:15:53.881Z,1022.28
2017-07-16T00:17:02.738Z,1022.33
2017-07-16T00:18:11.796Z,1022.35
2017-07-16T00:19:20.652Z,1022.33
2017-07-16T00:20:29.518Z,1022.32
2017-07-16T00:21:38.369Z,1022.29
2017-07-16T00:22:47.563Z,1022.28
2017-07-16T00:23:56.571Z,1022.29
2017-07-16T00:25:05.427Z,1022.3
2017-07-16T00:26:14.284Z,1022.31
2017-07-16T00:27:23.140Z,1022.3
2017-07-16T00:28:31.996Z,1022.25
2017-07-16T00:29:41.385Z,1022.27
2017-07-16T00:30:50.242Z,1022.25
2017-07-16T00:31:59.099Z,1022.26
2017-07-16T00:33:07.956Z,1022.22
2017-07-16T00:34:16.811Z,1022.24
2017-07-16T00:35:25.720Z,1022.27
2017-07-16T00:36:34.577Z,1022.26
2017-07-16T00:37:43.431Z,1022.26
2017-07-16T00:38:52.287Z,1022.26
2017-07-16T00:40:01.144Z,1022.31
2017-07-16T00:41:10.049Z,1022.27
2017-07-16T00:42:18.907Z,1022.32
2017-07-16T00:43:27.765Z,1022.3
2017-07-16T00:44:36.622Z,1022.26
2017-07-16T00:45:45.479Z,1022.26
2017-07-16T00:46:54.484Z,1022.29
2017-07-16T00:48:03.339Z,1022.28
2017-07-16T00:49:12.196Z,1022.25
2017-07-16T00:50:21.054Z,1022.25
2017-07-16T00:51:29.911Z,1022.26
2017-07-16T00:52:39.066Z,1022.24
2017-07-16T00:53:47.921Z,1022.27
2017-07-16T00:54:56.774Z,1022.26
2017-07-16T00:56:05.630Z,1022.28
2017-07-16T00:57:14.486Z,1022.29
2017-07-16T00:58:23.493Z,1022.29
2017-07-16T00:59:32.350Z,1022.31
2017-07-16T01:00:41.204Z,1022.29
2017-07-16T01:01:50.060Z,1022.32
2017-07-16T01:02:58.918Z,1022.32
2017-07-16T01:04:07.825Z,1022.33
2017-07-16T01:05:16.683Z,1022.33
2017-07-16T01:06:25.538Z,1022.34
2017-07-16T01:07:34.393Z,1022.31
2017-07-16T01:08:43.251Z,1022.28
2017-07-16T01:09:52.156Z,1022.31
2017-07-16T01:11:01.011Z,1022.31
2017-07-16T01:12:09.867Z,1022.33
2017-07-16T01:13:18.725Z,1022.29
2017-07-16T01:14:27.581Z,1022.33
2017-07-16T01:15:36.489Z,1022.31
2017-07-16T01:16:45.346Z,1022.26
2017-07-16T01:17:54.200Z,1022.3
2017-07-16T01:19:03.057Z,1022.29
2017-07-16T01:20:11.915Z,1022.26
2017-07-16T01:21:20.773Z,1022.3
2017-07-16T01:22:29.631Z,1022.29
2017-07-16T01:23:38.486Z,1022.34
2017-07-16T01:24:47.345Z,1022.32
2017-07-16T01:25:56.199Z,1022.36
2017-07-16T01:27:05.056Z,1022.33
2017-07-16T01:28:13.914Z,1022.34
2017-07-16T01:29:22.769Z,1022.34
2017-07-16T01:30:31.626Z,1022.35
2017-07-16T01:31:40.484Z,1022.34
2017-07-16T01:32:49.340Z,1022.3
2017-07-16T01:33:58.199Z,1022.28
2017-07-16T01:35:07.056Z,1022.3
2017-07-16T01:36:15.913Z,1022.33
2017-07-16T01:37:24.772Z,1022.32
2017-07-16T01:38:33.825Z,1022.36
2017-07-16T01:39:42.680Z,1022.32
2017-07-16T01:40:51.537Z,1022.28
2017-07-16T01:42:00.726Z,1022.28
2017-07-16T01:43:09.584Z,1022.26
2017-07-16T01:44:18.540Z,1022.24
2017-07-16T01:45:27.398Z,1022.26
2017-07-16T01:46:36.253Z,1022.3
2017-07-16T01:47:45.109Z,1022.25
2017-07-16T01:48:53.965Z,1022.27
2017-07-16T01:50:02.974Z,1022.26
2017-07-16T01:51:11.830Z,1022.25
2017-07-16T01:52:20.686Z,1022.25
2017-07-16T01:53:29.545Z,1022.22
2017-07-16T01:54:38.403Z,1022.17
2017-07-16T01:55:47.359Z,1022.21
2017-07-16T01:56:56.217Z,1022.22
2017-07-16T01:58:05.076Z,1022.2
2017-07-16T01:59:13.932Z,1022.13
2017-07-16T02:00:22.790Z,1022.13
2017-07-16T02:01:31.646Z,1022.06
2017-07-16T02:02:40.502Z,1022.07
2017-07-16T02:03:49.357Z,1022.11
2017-07-16T02:04:58.213Z,1022.05
2017-07-16T02:06:07.070Z,1022.04
2017-07-16T02:07:16.075Z,1022.06
2017-07-16T02:08:24.933Z,1022.11
2017-07-16T02:09:33.791Z,1022.11
2017-07-16T02:10:42.644Z,1022.18
2017-07-16T02:11:51.500Z,1022.18
2017-07-16T02:13:00.505Z,1022.16
2017-07-16T02:14:09.362Z,1022.18
2017-07-16T02:15:18.219Z,1022.17
2017-07-16T02:16:27.073Z,1022.15
2017-07-16T02:17:35.930Z,1022.18
2017-07-16T02:18:44.933Z,1022.11
2017-07-16T02:19:53.792Z,1022.13
2017-07-16T02:21:02.648Z,1022.11
2017-07-16T02:22:11.504Z,1022.1
2017-07-16T02:23:20.361Z,1022.1
2017-07-16T02:24:29.367Z,1022.1
2017-07-16T02:25:38.222Z,1022.1
2017-07-16T02:26:47.078Z,1022.11
2017-07-16T02:27:55.935Z,1022.06
2017-07-16T02:29:04.794Z,1022.12
2017-07-16T02:30:13.798Z,1022.09
2017-07-16T02:31:22.653Z,1022.07
2017-07-16T02:32:31.510Z,1022.09
2017-07-16T02:33:40.367Z,1022.06
2017-07-16T02:34:49.227Z,1022
2017-07-16T02:35:58.183Z,1021.97
2017-07-16T02:37:07.039Z,1021.96
2017-07-16T02:38:15.895Z,1021.94
2017-07-16T02:39:24.751Z,1021.88
2017-07-16T02:40:33.607Z,1021.85
2017-07-16T02:41:42.615Z,1021.86
2017-07-16T02:42:51.472Z,1021.89
2017-07-16T02:44:00.326Z,1021.86
2017-07-16T02:45:09.182Z,1021.85
2017-07-16T02:46:18.040Z,1021.86
2017-07-16T02:47:26.945Z,1021.87
2017-07-16T02:48:35.800Z,1021.87
2017-07-16T02:49:44.657Z,1021.85
2017-07-16T02:50:53.513Z,1021.87
2017-07-16T02:52:02.368Z,1021.87
2017-07-16T02:53:11.529Z,1021.82
2017-07-16T02:54:20.381Z,1021.87
2017-07-16T02:55:29.242Z,1021.86
2017-07-16T02:56:38.097Z,1021.87
2017-07-16T02:57:46.953Z,1021.85
2017-07-16T02:58:55.858Z,1021.89
2017-07-16T03:00:04.714Z,1021.87
2017-07-16T03:01:13.569Z,1021.84
2017-07-16T03:02:22.425Z,1021.8
2017-07-16T03:03:31.284Z,1021.79
2017-07-16T03:04:40.629Z,1021.8
2017-07-16T03:05:49.485Z,1021.84
2017-07-16T03:06:58.341Z,1021.82
2017-07-16T03:08:07.199Z,1021.85
2017-07-16T03:09:16.055Z,1021.85
2017-07-16T03:10:25.163Z,1021.84
2017-07-16T03:11:34.019Z,1021.87
2017-07-16T03:12:42.875Z,1021.85
2017-07-16T03:13:51.730Z,1021.85
2017-07-16T03:15:00.587Z,1021.81
2017-07-16T03:16:09.491Z,1021.82
2017-07-16T03:17:18.347Z,1021.85
2017-07-16T03:18:27.204Z,1021.79
2017-07-16T03:19:36.060Z,1021.78
2017-07-16T03:20:44.913Z,1021.77
2017-07-16T03:21:53.771Z,1021.77
2017-07-16T03:23:02.625Z,1021.76
2017-07-16T03:24:11.481Z,1021.79
2017-07-16T03:25:20.339Z,1021.79
2017-07-16T03:26:29.195Z,1021.81
2017-07-16T03:27:38.099Z,1021.75
2017-07-16T03:28:46.955Z,1021.79
2017-07-16T03:29:55.811Z,1021.81
2017-07-16T03:31:04.667Z,1021.79
2017-07-16T03:32:13.522Z,1021.79
2017-07-16T03:33:22.429Z,1021.8
2017-07-16T03:34:31.286Z,1021.84
2017-07-16T03:35:40.141Z,1021.81
2017-07-16T03:36:48.998Z,1021.84
2017-07-16T03:37:57.856Z,1021.85
2017-07-16T03:39:06.762Z,1021.84
2017-07-16T03:40:15.617Z,1021.89
2017-07-16T03:41:24.474Z,1021.88
2017-07-16T03:42:33.329Z,1021.89
2017-07-16T03:43:42.184Z,1021.84
2017-07-16T03:44:51.042Z,1021.83
2017-07-16T03:45:59.896Z,1021.8
2017-07-16T03:47:08.751Z,1021.8
2017-07-16T03:48:17.609Z,1021.8
2017-07-16T03:49:26.467Z,1021.8
2017-07-16T03:50:35.623Z,1021.81
2017-07-16T03:51:44.478Z,1021.73
2017-07-16T03:52:53.335Z,1021.73
2017-07-16T03:54:02.191Z,1021.74
2017-07-16T03:55:11.049Z,1021.75
2017-07-16T03:56:20.056Z,1021.71
2017-07-16T03:57:28.911Z,1021.73
2017-07-16T03:58:37.768Z,1021.75
2017-07-16T03:59:46.623Z,1021.72
2017-07-16T04:00:55.479Z,1021.73
2017-07-16T04:02:04.483Z,1021.72
2017-07-16T04:03:13.339Z,1021.71
2017-07-16T04:04:22.194Z,1021.72
2017-07-16T04:05:31.052Z,1021.71
2017-07-16T04:06:39.910Z,1021.74
2017-07-16T04:07:48.917Z,1021.69
2017-07-16T04:08:57.772Z,1021.73
2017-07-16T04:10:06.955Z,1021.72
2017-07-16T04:11:15.811Z,1021.68
2017-07-16T04:12:24.667Z,1021.68
2017-07-16T04:13:33.672Z,1021.7
2017-07-16T04:14:42.529Z,1021.64
2017-07-16T04:15:51.385Z,1021.63
2017-07-16T04:17:00.242Z,1021.63
2017-07-16T04:18:09.100Z,1021.62
2017-07-16T04:19:18.006Z,1021.6
2017-07-16T04:20:26.863Z,1021.6
2017-07-16T04:21:35.719Z,1021.64
2017-07-16T04:22:44.574Z,1021.59
2017-07-16T04:23:53.430Z,1021.59
2017-07-16T04:25:02.436Z,1021.58
2017-07-16T04:26:11.291Z,1021.59
2017-07-16T04:27:20.154Z,1021.63
2017-07-16T04:28:29.002Z,1021.62
2017-07-16T04:29:37.860Z,1021.62
2017-07-16T04:30:46.763Z,1021.61
2017-07-16T04:31:55.620Z,1021.63
2017-07-16T04:33:04.478Z,1021.64
2017-07-16T04:34:13.335Z,1021.65
2017-07-16T04:35:22.194Z,1021.62
2017-07-16T04:36:31.051Z,1021.66
2017-07-16T04:37:40.239Z,1021.68
2017-07-16T04:38:49.097Z,1021.7
2017-07-16T04:39:57.954Z,1021.71
2017-07-16T04:41:06.808Z,1021.67
2017-07-16T04:42:15.817Z,1021.69
2017-07-16T04:43:24.675Z,1021.68
2017-07-16T04:44:33.531Z,1021.66
2017-07-16T04:45:42.387Z,1021.71
2017-07-16T04:46:51.243Z,1021.7
2017-07-16T04:48:00.248Z,1021.73
2017-07-16T04:49:09.103Z,1021.73
2017-07-16T04:50:17.959Z,1021.73
2017-07-16T04:51:26.816Z,1021.72
2017-07-16T04:52:35.671Z,1021.7
2017-07-16T04:53:44.827Z,1021.73
2017-07-16T04:54:53.682Z,1021.69
2017-07-16T04:56:02.540Z,1021.68
2017-07-16T04:57:11.395Z,1021.7
2017-07-16T04:58:20.251Z,1021.7
2017-07-16T04:59:29.265Z,1021.68
2017-07-16T05:00:38.116Z,1021.67
2017-07-16T05:01:46.974Z,1021.7
2017-07-16T05:02:55.832Z,1021.7
2017-07-16T05:04:04.688Z,1021.68
2017-07-16T05:05:13.695Z,1021.69
2017-07-16T05:06:22.551Z,1021.68
2017-07-16T05:07:31.409Z,1021.74
2017-07-16T05:08:40.271Z,1021.73
2017-07-16T05:09:49.124Z,1021.73
2017-07-16T05:10:58.031Z,1021.73
2017-07-16T05:12:06.888Z,1021.69
2017-07-16T05:13:15.742Z,1021.74
2017-07-16T05:14:24.597Z,1021.74
2017-07-16T05:15:33.453Z,1021.71
2017-07-16T05:16:42.409Z,1021.77
2017-07-16T05:17:51.265Z,1021.79
2017-07-16T05:19:00.121Z,1021.81
2017-07-16T05:20:08.979Z,1021.81
2017-07-16T05:21:17.861Z,1021.8
2017-07-16T05:22:26.739Z,1021.76
2017-07-16T05:23:35.596Z,1021.77
2017-07-16T05:24:44.453Z,1021.79
2017-07-16T05:25:53.310Z,1021.84
2017-07-16T05:27:02.170Z,1021.86
2017-07-16T05:28:11.074Z,1021.84
2017-07-16T05:29:19.934Z,1021.88
2017-07-16T05:30:28.791Z,1021.87
2017-07-16T05:31:37.650Z,1021.91
2017-07-16T05:32:46.503Z,1021.86
2017-07-16T05:33:55.663Z,1021.88
2017-07-16T05:35:04.519Z,1021.92
2017-07-16T05:36:13.378Z,1021.95
2017-07-16T05:37:22.232Z,1021.91
2017-07-16T05:38:31.089Z,1021.88
2017-07-16T05:39:40.046Z,1021.92
2017-07-16T05:40:48.900Z,1021.97
2017-07-16T05:41:57.755Z,1021.97
2017-07-16T05:43:06.612Z,1021.99
2017-07-16T05:44:15.470Z,1021.99
2017-07-16T05:45:24.427Z,1021.97
2017-07-16T05:46:33.311Z,1021.97
2017-07-16T05:47:42.139Z,1021.99
2017-07-16T05:48:50.993Z,1021.99
2017-07-16T05:49:59.852Z,1021.96
2017-07-16T05:51:08.858Z,1022.03
2017-07-16T05:52:17.711Z,1021.97
2017-07-16T05:53:26.566Z,1022
2017-07-16T05:54:35.424Z,1022
2017-07-16T05:55:44.278Z,1022.01
2017-07-16T05:56:53.133Z,1021.97
2017-07-16T05:58:01.990Z,1021.97
2017-07-16T05:59:10.847Z,1022.01
2017-07-16T06:00:19.703Z,1022.01
2017-07-16T06:01:28.562Z,1022.01
2017-07-16T06:02:37.419Z,1022
2017-07-16T06:03:46.273Z,1022.03
2017-07-16T06:04:55.131Z,1021.98
2017-07-16T06:06:03.987Z,1021.98
2017-07-16T06:07:12.843Z,1022.02
2017-07-16T06:08:21.999Z,1022.03
2017-07-16T06:09:30.855Z,1022.03
2017-07-16T06:10:39.712Z,1022.04
2017-07-16T06:11:48.567Z,1022.04
2017-07-16T06:12:57.425Z,1022.07
2017-07-16T06:14:06.283Z,1022.03
2017-07-16T06:15:15.139Z,1022.06
2017-07-16T06:16:23.997Z,1022.09
2017-07-16T06:17:32.874Z,1022.13
2017-07-16T06:18:41.710Z,1022.13
2017-07-16T06:19:50.665Z,1022.18
2017-07-16T06:20:59.854Z,1022.21
2017-07-16T06:22:08.709Z,1022.19
2017-07-16T06:23:17.566Z,1022.2
2017-07-16T06:24:26.422Z,1022.22
2017-07-16T06:25:35.330Z,1022.2
2017-07-16T06:26:44.188Z,1022.22
2017-07-16T06:27:53.044Z,1022.18
2017-07-16T06:29:01.903Z,1022.17
2017-07-16T06:30:10.758Z,1022.19
2017-07-16T06:31:19.721Z,1022.16
2017-07-16T06:32:28.569Z,1022.17
2017-07-16T06:33:37.426Z,1022.19
2017-07-16T06:34:46.282Z,1022.19
2017-07-16T06:35:55.140Z,1022.18
2017-07-16T06:37:04.199Z,1022.18
2017-07-16T06:38:13.053Z,1022.15
2017-07-16T06:39:21.912Z,1022.17
2017-07-16T06:40:30.768Z,1022.16
2017-07-16T06:41:39.625Z,1022.17
2017-07-16T06:42:48.531Z,1022.14
2017-07-16T06:43:57.388Z,1022.16
2017-07-16T06:45:06.244Z,1022.15
2017-07-16T06:46:15.102Z,1022.14
2017-07-16T06:47:23.963Z,1022.15
2017-07-16T06:48:32.924Z,1022.15
2017-07-16T06:49:41.782Z,1022.22
2017-07-16T06:50:50.641Z,1022.19
2017-07-16T06:51:59.498Z,1022.24
2017-07-16T06:53:08.356Z,1022.22
2017-07-16T06:54:17.464Z,1022.26
2017-07-16T06:55:26.323Z,1022.25
2017-07-16T06:56:35.179Z,1022.22
2017-07-16T06:57:44.035Z,1022.2
2017-07-16T06:58:52.892Z,1022.19
2017-07-16T07:00:01.849Z,1022.2
2017-07-16T07:01:10.710Z,1022.19
2017-07-16T07:02:19.569Z,1022.2
2017-07-16T07:03:28.432Z,1022.23
2017-07-16T07:04:37.286Z,1022.24
2017-07-16T07:05:46.394Z,1022.21
2017-07-16T07:06:55.248Z,1022.18
2017-07-16T07:08:04.107Z,1022.21
2017-07-16T07:09:12.964Z,1022.16
2017-07-16T07:10:21.826Z,1022.16
2017-07-16T07:11:30.681Z,1022.12
2017-07-16T07:12:39.570Z,1022.16
2017-07-16T07:13:48.393Z,1022.15
2017-07-16T07:14:57.251Z,1022.15
2017-07-16T07:16:06.109Z,1022.15
2017-07-16T07:17:15.117Z,1022.14
2017-07-16T07:18:23.974Z,1022.18
2017-07-16T07:19:32.836Z,1022.2
2017-07-16T07:20:41.695Z,1022.16
2017-07-16T07:21:50.548Z,1022.18
2017-07-16T07:22:59.504Z,1022.18
2017-07-16T07:24:08.361Z,1022.17
2017-07-16T07:25:17.219Z,1022.19
2017-07-16T07:26:26.077Z,1022.16
2017-07-16T07:27:34.936Z,1022.17
2017-07-16T07:28:43.950Z,1022.14
2017-07-16T07:29:52.804Z,1022.15
2017-07-16T07:31:01.662Z,1022.12
2017-07-16T07:32:10.522Z,1022.11
2017-07-16T07:33:19.381Z,1022.14
2017-07-16T07:34:28.725Z,1022.1
2017-07-16T07:35:37.582Z,1022.12
2017-07-16T07:36:46.441Z,1022.12
2017-07-16T07:37:55.302Z,1022.08
2017-07-16T07:39:04.160Z,1022.11
2017-07-16T07:40:13.167Z,1022.09
2017-07-16T07:41:22.023Z,1022.12
2017-07-16T07:42:30.883Z,1022.12
2017-07-16T07:43:39.740Z,1022.12
2017-07-16T07:44:48.599Z,1022.08
2017-07-16T07:45:57.608Z,1022.15
2017-07-16T07:47:06.469Z,1022.12
2017-07-16T07:48:15.659Z,1022.16
2017-07-16T07:49:24.515Z,1022.12
2017-07-16T07:50:33.372Z,1022.1
2017-07-16T07:51:42.382Z,1022.12
2017-07-16T07:52:51.239Z,1022.1
2017-07-16T07:54:00.096Z,1022.06
2017-07-16T07:55:08.953Z,1022.07
2017-07-16T07:56:17.812Z,1022.08
2017-07-16T07:57:26.921Z,1022.06
2017-07-16T07:58:35.778Z,1022.04
2017-07-16T07:59:44.638Z,1022.01
2017-07-16T08:00:53.495Z,1022
2017-07-16T08:02:02.352Z,1021.98
2017-07-16T08:03:11.259Z,1021.93
2017-07-16T08:04:20.116Z,1021.95
2017-07-16T08:05:28.974Z,1021.9
2017-07-16T08:06:37.833Z,1021.94
2017-07-16T08:07:46.690Z,1021.88
2017-07-16T08:08:55.700Z,1021.92
2017-07-16T08:10:04.555Z,1021.93
2017-07-16T08:11:13.413Z,1021.9
2017-07-16T08:12:22.273Z,1021.93
2017-07-16T08:13:31.464Z,1021.92
2017-07-16T08:14:40.471Z,1021.89
2017-07-16T08:15:49.331Z,1021.96
2017-07-16T08:16:58.189Z,1021.94
2017-07-16T08:18:07.048Z,1021.93
2017-07-16T08:19:15.905Z,1021.95
2017-07-16T08:20:24.811Z,1021.88
2017-07-16T08:21:33.669Z,1021.86
2017-07-16T08:22:42.526Z,1021.85
2017-07-16T08:23:51.385Z,1021.83
2017-07-16T08:25:00.243Z,1021.82
2017-07-16T08:26:09.301Z,1021.82
2017-07-16T08:27:18.160Z,1021.83
2017-07-16T08:28:27.018Z,1021.82
2017-07-16T08:29:35.876Z,1021.76
2017-07-16T08:30:44.735Z,1021.77
2017-07-16T08:31:53.895Z,1021.78
2017-07-16T08:33:02.756Z,1021.73
2017-07-16T08:34:11.615Z,1021.75
2017-07-16T08:35:20.474Z,1021.76
2017-07-16T08:36:29.333Z,1021.75
2017-07-16T08:37:38.340Z,1021.75
2017-07-16T08:38:47.199Z,1021.75
2017-07-16T08:39:56.059Z,1021.7
2017-07-16T08:41:04.917Z,1021.75
2017-07-16T08:42:13.773Z,1021.75
2017-07-16T08:43:22.782Z,1021.72
2017-07-16T08:44:31.641Z,1021.71
2017-07-16T08:45:40.506Z,1021.75
2017-07-16T08:46:49.358Z,1021.71
2017-07-16T08:47:58.216Z,1021.74
2017-07-16T08:49:07.125Z,1021.72
2017-07-16T08:50:15.981Z,1021.77
2017-07-16T08:51:24.840Z,1021.77
2017-07-16T08:52:33.701Z,1021.75
2017-07-16T08:53:42.558Z,1021.86
2017-07-16T08:54:51.519Z,1021.82
2017-07-16T08:56:00.379Z,1021.87
2017-07-16T08:57:09.238Z,1021.8
2017-07-16T08:58:18.096Z,1021.89
2017-07-16T08:59:26.954Z,1021.87
2017-07-16T09:00:35.813Z,1021.91
2017-07-16T09:01:44.673Z,1021.91
2017-07-16T09:02:53.531Z,1021.89
2017-07-16T09:04:02.390Z,1021.88
2017-07-16T09:05:11.249Z,1021.86
2017-07-16T09:06:20.309Z,1021.86
2017-07-16T09:07:29.168Z,1021.89
2017-07-16T09:08:38.026Z,1021.87
2017-07-16T09:09:46.884Z,1021.87
2017-07-16T09:10:55.742Z,1021.81
2017-07-16T09:12:04.649Z,1021.85
2017-07-16T09:13:13.506Z,1021.83
2017-07-16T09:14:22.366Z,1021.84
2017-07-16T09:15:31.223Z,1021.8
2017-07-16T09:16:40.082Z,1021.82
2017-07-16T09:17:49.092Z,1021.81
2017-07-16T09:18:57.950Z,1021.85
2017-07-16T09:20:06.810Z,1021.86
2017-07-16T09:21:15.670Z,1021.88
2017-07-16T09:22:24.526Z,1021.85
2017-07-16T09:23:33.536Z,1021.85
2017-07-16T09:24:42.395Z,1021.81
2017-07-16T09:25:51.251Z,1021.86
2017-07-16T09:27:00.111Z,1021.82
2017-07-16T09:28:08.967Z,1021.85
2017-07-16T09:29:17.927Z,1021.84
2017-07-16T09:30:26.784Z,1021.84
2017-07-16T09:31:35.642Z,1021.8
2017-07-16T09:32:44.500Z,1021.8
2017-07-16T09:33:53.360Z,1021.85
2017-07-16T09:35:02.220Z,1021.81
2017-07-16T09:36:11.077Z,1021.72
2017-07-16T09:37:19.936Z,1021.75
2017-07-16T09:38:28.794Z,1021.71
2017-07-16T09:39:37.650Z,1021.75
2017-07-16T09:40:46.505Z,1021.74
2017-07-16T09:41:55.702Z,1021.75
2017-07-16T09:43:04.559Z,1021.68
2017-07-16T09:44:13.414Z,1021.68
2017-07-16T09:45:22.273Z,1021.73
2017-07-16T09:46:31.284Z,1021.71
2017-07-16T09:47:40.138Z,1021.72
2017-07-16T09:48:48.997Z,1021.69
2017-07-16T09:49:57.855Z,1021.71
2017-07-16T09:51:06.713Z,1021.68
2017-07-16T09:52:15.621Z,1021.73
2017-07-16T09:53:24.480Z,1021.71
2017-07-16T09:54:33.339Z,1021.72
2017-07-16T09:55:42.200Z,1021.76
2017-07-16T09:56:51.059Z,1021.73
2017-07-16T09:57:59.919Z,1021.77
2017-07-16T09:59:08.779Z,1021.72
2017-07-16T10:00:17.639Z,1021.76
2017-07-16T10:01:26.504Z,1021.76
2017-07-16T10:02:35.364Z,1021.77
2017-07-16T10:03:44.528Z,1021.78
2017-07-16T10:04:53.387Z,1021.76
2017-07-16T10:06:02.249Z,1021.77
2017-07-16T10:07:11.108Z,1021.8
2017-07-16T10:08:19.965Z,1021.83
2017-07-16T10:09:28.874Z,1021.77
2017-07-16T10:10:37.731Z,1021.77
2017-07-16T10:11:46.599Z,1021.73
2017-07-16T10:12:55.457Z,1021.73
2017-07-16T10:14:04.319Z,1021.78
2017-07-16T10:15:13.329Z,1021.79
2017-07-16T10:16:22.190Z,1021.83
2017-07-16T10:17:31.050Z,1021.73
2017-07-16T10:18:39.911Z,1021.76
2017-07-16T10:19:48.769Z,1021.73
2017-07-16T10:20:57.680Z,1021.74
2017-07-16T10:22:06.552Z,1021.74
2017-07-16T10:23:15.422Z,1021.75
2017-07-16T10:24:24.293Z,1021.76
2017-07-16T10:27:14.881Z,1021.71
2017-07-16T10:28:23.795Z,1021.7
2017-07-16T10:29:32.792Z,1021.68
2017-07-16T10:30:41.762Z,1021.71
2017-07-16T10:31:50.977Z,1021.69
2017-07-16T10:33:00.113Z,1021.66
2017-07-16T10:34:09.076Z,1021.62
2017-07-16T10:35:18.078Z,1021.59
2017-07-16T10:36:27.035Z,1021.6
2017-07-16T10:37:36.553Z,1021.6
2017-07-16T10:38:45.790Z,1021.69
2017-07-16T10:42:49.793Z,1021.63
2017-07-16T10:43:58.650Z,1021.62
2017-07-16T10:45:07.510Z,1021.63
2017-07-16T10:46:16.365Z,1021.56
2017-07-16T10:47:25.223Z,1021.63
2017-07-16T10:48:34.234Z,1021.59
2017-07-16T10:49:43.401Z,1021.6
2017-07-16T10:50:52.485Z,1021.67
2017-07-16T10:52:01.525Z,1021.62
2017-07-16T10:53:10.745Z,1021.63
2017-07-16T10:54:20.386Z,1021.68
2017-07-16T10:55:29.565Z,1021.62
2017-07-16T10:56:38.647Z,1021.67
2017-07-16T10:57:47.571Z,1021.62
2017-07-16T10:58:56.552Z,1021.61
2017-07-16T11:00:05.457Z,1021.6
2017-07-16T11:01:14.314Z,1021.56
2017-07-16T11:02:23.173Z,1021.57
2017-07-16T11:03:32.031Z,1021.59
2017-07-16T11:04:40.889Z,1021.61
2017-07-16T11:05:49.746Z,1021.56
2017-07-16T11:06:58.619Z,1021.6
2017-07-16T11:08:07.535Z,1021.55
2017-07-16T11:09:16.492Z,1021.57
2017-07-16T11:10:25.394Z,1021.56
2017-07-16T11:11:34.579Z,1021.56
2017-07-16T11:12:43.526Z,1021.56
2017-07-16T11:13:52.842Z,1021.57
2017-07-16T11:15:02.319Z,1021.55
2017-07-16T11:16:11.481Z,1021.51
2017-07-16T11:17:20.681Z,1021.51
2017-07-16T11:18:29.665Z,1021.52
2017-07-16T11:19:38.733Z,1021.51
2017-07-16T11:20:47.950Z,1021.53
2017-07-16T11:21:56.989Z,1021.5
2017-07-16T11:23:05.945Z,1021.53
2017-07-16T11:24:14.898Z,1021.54
2017-07-16T11:25:23.882Z,1021.52
2017-07-16T11:26:32.839Z,1021.51
2017-07-16T11:27:42.130Z,1021.47
2017-07-16T11:28:51.112Z,1021.47
2017-07-16T11:30:00.071Z,1021.48
2017-07-16T11:31:09.052Z,1021.42
2017-07-16T11:32:18.134Z,1021.45
2017-07-16T11:33:27.451Z,1021.39
2017-07-16T11:34:36.508Z,1021.38
2017-07-16T11:35:45.475Z,1021.37
2017-07-16T11:36:54.699Z,1021.44
2017-07-16T11:38:03.651Z,1021.37
2017-07-16T11:39:12.904Z,1021.44
2017-07-16T11:40:22.253Z,1021.43
2017-07-16T11:41:31.575Z,1021.38
2017-07-16T11:42:40.584Z,1021.41
2017-07-16T11:43:49.570Z,1021.46
2017-07-16T11:44:58.761Z,1021.38
2017-07-16T11:46:07.675Z,1021.4
2017-07-16T11:47:16.683Z,1021.38
2017-07-16T11:48:25.733Z,1021.42
2017-07-16T11:49:34.726Z,1021.41
2017-07-16T11:50:43.957Z,1021.38
2017-07-16T11:51:53.226Z,1021.4
2017-07-16T11:53:02.177Z,1021.42
2017-07-16T11:54:11.232Z,1021.37
2017-07-16T11:55:20.227Z,1021.42
2017-07-16T11:56:29.330Z,1021.44
2017-07-16T11:57:38.642Z,1021.43
2017-07-16T11:58:47.587Z,1021.41
2017-07-16T11:59:56.945Z,1021.39
2017-07-16T12:01:07.294Z,1021.38
2017-07-16T12:02:16.227Z,1021.4
2017-07-16T12:03:25.099Z,1021.39
2017-07-16T12:04:34.450Z,1021.35
2017-07-16T12:05:43.478Z,1021.38
2017-07-16T12:06:52.761Z,1021.39
2017-07-16T12:08:01.715Z,1021.35
2017-07-16T12:09:10.791Z,1021.38
2017-07-16T12:10:20.518Z,1021.39
2017-07-16T12:11:29.729Z,1021.35
2017-07-16T12:12:38.999Z,1021.32
2017-07-16T12:13:47.980Z,1021.35
2017-07-16T12:14:56.936Z,1021.33
2017-07-16T12:16:05.926Z,1021.34
2017-07-16T12:17:15.113Z,1021.32
2017-07-16T12:18:24.080Z,1021.28
2017-07-16T12:19:33.046Z,1021.32
2017-07-16T12:20:42.064Z,1021.31
2017-07-16T12:21:51.072Z,1021.28
2017-07-16T12:23:00.126Z,1021.22
2017-07-16T12:24:09.077Z,1021.26
2017-07-16T12:25:18.037Z,1021.24
2017-07-16T12:26:26.963Z,1021.19
2017-07-16T12:27:35.898Z,1021.21
2017-07-16T12:28:45.011Z,1021.21
2017-07-16T12:29:53.880Z,1021.27
2017-07-16T12:31:02.738Z,1021.27
2017-07-16T12:32:11.643Z,1021.18
2017-07-16T12:33:20.504Z,1021.23
2017-07-16T12:34:29.412Z,1021.17
2017-07-16T12:35:38.271Z,1021.22
2017-07-16T12:36:47.128Z,1021.23
2017-07-16T12:37:55.985Z,1021.24
2017-07-16T12:39:04.844Z,1021.24
2017-07-16T12:40:13.903Z,1021.17
2017-07-16T12:41:22.763Z,1021.18
2017-07-16T12:42:31.621Z,1021.17
2017-07-16T12:43:40.479Z,1021.23
2017-07-16T12:44:49.337Z,1021.2
2017-07-16T12:45:58.304Z,1021.19
2017-07-16T12:47:07.163Z,1021.18
2017-07-16T12:48:16.025Z,1021.22
2017-07-16T12:49:24.883Z,1021.13
2017-07-16T12:50:33.745Z,1021.15
2017-07-16T12:51:42.957Z,1021.14
2017-07-16T12:52:52.156Z,1021.11
2017-07-16T12:54:01.015Z,1021.13
2017-07-16T12:55:09.876Z,1021.11
2017-07-16T12:56:18.776Z,1021.12
2017-07-16T12:57:27.598Z,1021.11
2017-07-16T12:58:36.457Z,1021.07
2017-07-16T12:59:45.318Z,1021.1
2017-07-16T13:00:54.178Z,1021.1
2017-07-16T13:02:03.074Z,1021.16
2017-07-16T13:03:11.950Z,1021.1
2017-07-16T13:04:20.809Z,1021.12
2017-07-16T13:05:29.676Z,1021.16
2017-07-16T13:06:38.537Z,1021.13
2017-07-16T13:07:47.396Z,1021.14
2017-07-16T13:08:56.354Z,1021.12
2017-07-16T13:10:05.212Z,1021.15
2017-07-16T13:11:14.073Z,1021.11
2017-07-16T13:12:22.937Z,1021.15
2017-07-16T13:13:31.800Z,1021.2
2017-07-16T13:14:40.763Z,1021.22
2017-07-16T13:15:49.625Z,1021.24
2017-07-16T13:16:58.488Z,1021.25
2017-07-16T13:18:07.346Z,1021.25
2017-07-16T13:19:16.208Z,1021.26
2017-07-16T13:20:25.116Z,1021.26
2017-07-16T13:21:33.984Z,1021.29
2017-07-16T13:22:42.845Z,1021.21
2017-07-16T13:23:51.702Z,1021.23
2017-07-16T13:25:00.575Z,1021.2
2017-07-16T13:26:09.588Z,1021.19
2017-07-16T13:27:18.781Z,1021.18
2017-07-16T13:28:27.665Z,1021.15
2017-07-16T13:29:36.538Z,1021.2
2017-07-16T13:30:45.399Z,1021.24
2017-07-16T13:31:54.507Z,1021.32
2017-07-16T13:33:03.366Z,1021.26
2017-07-16T13:34:12.224Z,1021.22
2017-07-16T13:35:21.084Z,1021.22
2017-07-16T13:36:29.943Z,1021.2
2017-07-16T13:37:38.826Z,1021.18
2017-07-16T13:38:47.660Z,1021.19
2017-07-16T13:39:56.519Z,1021.19
2017-07-16T13:41:05.381Z,1021.17
2017-07-16T13:42:14.240Z,1021.19
2017-07-16T13:43:23.400Z,1021.15
2017-07-16T13:44:32.265Z,1021.15
2017-07-16T13:45:41.137Z,1021.16
2017-07-16T13:46:50.013Z,1021.16
2017-07-16T13:47:58.882Z,1021.15
2017-07-16T13:49:08.050Z,1021.11
2017-07-16T13:50:16.923Z,1021.13
2017-07-16T13:51:25.794Z,1021.13
2017-07-16T13:52:34.668Z,1021.15
2017-07-16T13:53:43.540Z,1021.06
2017-07-16T13:54:52.609Z,1021.11
2017-07-16T13:56:01.480Z,1021.18
2017-07-16T13:57:10.351Z,1021.13
2017-07-16T13:58:19.227Z,1021.2
2017-07-16T13:59:28.100Z,1021.1
2017-07-16T14:00:37.125Z,1021.13
2017-07-16T14:01:45.999Z,1021.01